createdAt,value
2024-05-09T00:01:57.275Z,101264.09
2024-05-09T00:04:27.631Z,101265.00
2024-05-09T00:07:00.628Z,101263.31
2024-05-09T00:09:30.819Z,101260.91
2024-05-09T00:12:01.200Z,101267.19
2024-05-09T00:14:31.590Z,101257.91
2024-05-09T00:17:01.897Z,101261.03
2024-05-09T00:19:32.433Z,101257.41
2024-05-09T00:22:05.422Z,101251.47
2024-05-09T00:24:53.974Z,101250.69
2024-05-09T00:27:24.267Z,101253.25
2024-05-09T00:29:54.418Z,101257.53
2024-05-09T00:32:24.737Z,101250.56
2024-05-09T00:34:55.235Z,101257.28
2024-05-09T00:37:25.458Z,101265.72
2024-05-09T00:39:58.271Z,101262.72
2024-05-09T00:42:28.539Z,101262.34
2024-05-09T00:44:58.833Z,101262.41
2024-05-09T00:47:29.293Z,101257.53
2024-05-09T00:49:59.670Z,101248.09
2024-05-09T00:52:31.130Z,101261.63
2024-05-09T00:55:04.738Z,101262.28
2024-05-09T00:57:35.364Z,101257.00
2024-05-09T01:00:07.826Z,101255.31
2024-05-09T01:02:42.360Z,101257.16
2024-05-09T01:05:12.891Z,101254.66
2024-05-09T01:07:43.263Z,101249.59
2024-05-09T01:10:21.244Z,101247.84
2024-05-09T01:12:57.921Z,101249.41
2024-05-09T01:15:28.249Z,101250.16
2024-05-09T01:17:59.135Z,101250.78
2024-05-09T01:20:39.602Z,101253.00
2024-05-09T01:23:16.792Z,101245.84
2024-05-09T01:25:47.450Z,101246.50
2024-05-09T01:28:17.856Z,101244.84
2024-05-09T01:30:48.197Z,101246.69
2024-05-09T01:33:18.543Z,101249.28
2024-05-09T01:35:48.900Z,101252.53
2024-05-09T01:38:21.872Z,101253.97
2024-05-09T01:40:52.620Z,101258.75
2024-05-09T01:43:22.866Z,101262.00
2024-05-09T01:45:53.136Z,101261.91
2024-05-09T01:48:23.422Z,101265.38
2024-05-09T01:50:53.793Z,101272.25
2024-05-09T01:53:26.803Z,101263.09
2024-05-09T01:56:00.105Z,101268.19
2024-05-09T01:58:31.293Z,101268.03
2024-05-09T02:01:03.447Z,101264.47
2024-05-09T02:03:35.014Z,101271.91
2024-05-09T02:06:05.658Z,101268.47
2024-05-09T02:08:38.786Z,101267.91
2024-05-09T02:11:10.675Z,101260.31
2024-05-09T02:13:41.046Z,101264.72
2024-05-09T02:16:15.085Z,101247.06
2024-05-09T02:18:45.342Z,101245.44
2024-05-09T02:21:15.940Z,101253.09
2024-05-09T02:23:48.767Z,101260.66
2024-05-09T02:26:19.068Z,101256.91
2024-05-09T02:28:49.414Z,101258.59
2024-05-09T02:31:19.749Z,101262.91
2024-05-09T02:33:50.335Z,101262.13
2024-05-09T02:36:18.191Z,101272.97
2024-05-09T02:38:51.068Z,101265.09
2024-05-09T02:41:18.774Z,101262.44
2024-05-09T02:43:48.986Z,101266.44
2024-05-09T02:46:16.584Z,101264.59
2024-05-09T02:48:49.997Z,101263.44
2024-05-09T02:51:20.625Z,101270.97
2024-05-09T02:53:53.554Z,101268.34
2024-05-09T02:56:21.291Z,101265.72
2024-05-09T02:58:51.478Z,101263.19
2024-05-09T03:01:20.215Z,101259.06
2024-05-09T03:03:51.539Z,101260.97
2024-05-09T03:06:19.364Z,101252.59
2024-05-09T03:08:52.941Z,101261.03
2024-05-09T03:11:23.922Z,101258.44
2024-05-09T03:13:54.607Z,101269.31
2024-05-09T03:16:22.212Z,101263.13
2024-05-09T03:18:52.609Z,101256.25
2024-05-09T03:21:22.164Z,101255.31
2024-05-09T03:23:55.172Z,101264.69
2024-05-09T03:26:22.807Z,101252.72
2024-05-09T03:28:53.234Z,101260.25
2024-05-09T03:31:20.869Z,101251.75
2024-05-09T03:33:52.388Z,101252.72
2024-05-09T03:36:20.032Z,101251.75
2024-05-09T03:38:51.487Z,101256.31
2024-05-09T03:41:22.694Z,101250.91
2024-05-09T03:43:53.071Z,101249.53
2024-05-09T03:46:20.642Z,101254.69
2024-05-09T03:48:50.978Z,101252.06
2024-05-09T03:51:21.327Z,101255.53
2024-05-09T03:53:50.610Z,101243.78
2024-05-09T03:56:20.911Z,101247.50
2024-05-09T03:58:51.319Z,101234.06
2024-05-09T04:01:21.706Z,101249.31
2024-05-09T04:03:49.528Z,101250.09
2024-05-09T04:06:26.270Z,101254.59
2024-05-09T04:08:54.063Z,101253.44
2024-05-09T04:11:27.601Z,101248.72
2024-05-09T04:13:57.953Z,101250.72
2024-05-09T04:16:28.502Z,101253.63
2024-05-09T04:18:56.168Z,101251.38
2024-05-09T04:21:26.450Z,101259.97
2024-05-09T04:23:54.090Z,101258.63
2024-05-09T04:26:24.307Z,101262.41
2024-05-09T04:28:52.098Z,101271.88
2024-05-09T04:31:25.101Z,101271.06
2024-05-09T04:33:53.007Z,101259.41
2024-05-09T04:36:23.434Z,101263.31
2024-05-09T04:38:51.088Z,101252.09
2024-05-09T04:41:21.348Z,101249.34
2024-05-09T04:43:51.015Z,101252.97
2024-05-09T04:46:21.326Z,101247.09
2024-05-09T04:48:51.762Z,101249.00
2024-05-09T04:51:22.182Z,101242.63
2024-05-09T04:53:49.870Z,101243.53
2024-05-09T04:56:20.161Z,101246.81
2024-05-09T04:58:47.813Z,101252.47
2024-05-09T05:01:18.888Z,101237.41
2024-05-09T05:03:46.775Z,101235.22
2024-05-09T05:06:19.868Z,101240.72
2024-05-09T05:08:47.756Z,101241.88
2024-05-09T05:11:18.142Z,101247.91
2024-05-09T05:13:45.874Z,101244.59
2024-05-09T05:16:16.248Z,101251.44
2024-05-09T05:18:46.341Z,101251.56
2024-05-09T05:21:19.586Z,101257.09
2024-05-09T05:23:47.369Z,101252.34
2024-05-09T05:26:20.464Z,101248.34
2024-05-09T05:28:48.307Z,101252.13
2024-05-09T05:31:18.751Z,101253.38
2024-05-09T05:33:48.800Z,101257.31
2024-05-09T05:36:21.816Z,101255.28
2024-05-09T05:38:49.739Z,101262.44
2024-05-09T05:41:20.166Z,101264.09
2024-05-09T05:43:47.725Z,101262.47
2024-05-09T05:46:17.966Z,101259.06
2024-05-09T05:48:45.633Z,101268.72
2024-05-09T05:51:16.039Z,101276.53
2024-05-09T05:53:46.550Z,101276.97
2024-05-09T05:56:16.845Z,101275.84
2024-05-09T05:58:44.617Z,101277.25
2024-05-09T06:01:14.915Z,101284.59
2024-05-09T06:03:42.670Z,101274.81
2024-05-09T06:06:13.129Z,101273.78
2024-05-09T06:08:40.924Z,101278.63
2024-05-09T06:11:14.039Z,101283.38
2024-05-09T06:13:43.290Z,101281.84
2024-05-09T06:16:13.550Z,101281.78
2024-05-09T06:18:41.214Z,101282.44
2024-05-09T06:21:11.495Z,101293.72
2024-05-09T06:23:46.531Z,101286.06
2024-05-09T06:26:19.550Z,101278.44
2024-05-09T06:28:47.287Z,101279.88
2024-05-09T06:31:19.078Z,101282.00
2024-05-09T06:33:46.906Z,101288.03
2024-05-09T06:36:17.399Z,101278.56
2024-05-09T06:38:45.089Z,101282.47
2024-05-09T06:41:18.160Z,101282.09
2024-05-09T06:43:45.939Z,101281.84
2024-05-09T06:46:16.199Z,101280.09
2024-05-09T06:48:44.227Z,101282.00
2024-05-09T06:51:14.876Z,101287.28
2024-05-09T06:53:42.671Z,101279.28
2024-05-09T06:56:12.850Z,101282.66
2024-05-09T06:58:43.033Z,101275.69
2024-05-09T07:01:13.259Z,101284.16
2024-05-09T07:03:42.250Z,101277.47
2024-05-09T07:06:12.648Z,101278.56
2024-05-09T07:08:41.175Z,101280.53
2024-05-09T07:11:11.583Z,101279.94
2024-05-09T07:13:39.256Z,101283.75
2024-05-09T07:16:12.220Z,101282.81
2024-05-09T07:18:40.045Z,101289.94
2024-05-09T07:21:11.707Z,101279.56
2024-05-09T07:23:39.543Z,101283.38
2024-05-09T07:26:13.026Z,101280.38
2024-05-09T07:28:40.811Z,101275.72
2024-05-09T07:31:15.191Z,101280.16
2024-05-09T07:33:42.910Z,101282.72
2024-05-09T07:36:13.206Z,101276.06
2024-05-09T07:38:40.844Z,101279.34
2024-05-09T07:41:11.286Z,101273.25
2024-05-09T07:43:38.860Z,101271.31
2024-05-09T07:47:13.919Z,101272.44
2024-05-09T07:50:35.823Z,101266.94
2024-05-09T07:53:20.459Z,101257.16
2024-05-09T07:54:43.580Z,101259.03
2024-05-09T07:57:11.579Z,101261.66
2024-05-09T07:59:42.505Z,101257.41
2024-05-09T08:02:10.281Z,101255.84
2024-05-09T08:04:43.308Z,101259.47
2024-05-09T08:07:11.059Z,101257.13
2024-05-09T08:09:41.357Z,101259.91
2024-05-09T08:12:09.503Z,101249.75
2024-05-09T08:14:39.724Z,101250.56
2024-05-09T08:17:07.774Z,101247.13
2024-05-09T08:19:38.543Z,101252.34
2024-05-09T08:22:11.407Z,101244.00
2024-05-09T08:24:41.718Z,101245.06
2024-05-09T08:27:09.374Z,101249.50
2024-05-09T08:29:39.913Z,101248.03
2024-05-09T08:32:12.897Z,101248.13
2024-05-09T08:34:44.229Z,101242.09
2024-05-09T08:37:21.451Z,101255.03
2024-05-09T08:39:54.041Z,101238.97
2024-05-09T08:42:24.566Z,101239.94
2024-05-09T08:44:55.615Z,101240.69
2024-05-09T08:47:23.795Z,101239.00
2024-05-09T08:49:58.739Z,101234.81
2024-05-09T08:52:29.159Z,101238.34
2024-05-09T08:54:59.354Z,101237.50
2024-05-09T08:57:28.953Z,101235.00
2024-05-09T09:00:09.924Z,101234.38
2024-05-09T09:02:41.981Z,101236.28
2024-05-09T09:05:16.926Z,101238.38
2024-05-09T09:07:48.686Z,101235.31
2024-05-09T09:10:28.995Z,101221.53
2024-05-09T09:13:04.997Z,101234.88
2024-05-09T09:15:35.699Z,101239.88
2024-05-09T09:18:03.720Z,101236.22
2024-05-09T09:20:36.747Z,101242.91
2024-05-09T09:23:09.004Z,101242.81
2024-05-09T09:25:42.368Z,101231.00
2024-05-09T09:28:10.353Z,101233.38
2024-05-09T09:30:42.739Z,101232.38
2024-05-09T09:33:12.098Z,101234.88
2024-05-09T09:35:45.880Z,101238.59
2024-05-09T09:38:20.880Z,101227.84
2024-05-09T09:40:52.416Z,101228.00
2024-05-09T09:43:22.518Z,101233.28
2024-05-09T09:46:32.487Z,101220.84
2024-05-09T09:49:03.655Z,101221.75
2024-05-09T09:51:35.906Z,101220.13
2024-05-09T09:54:08.203Z,101219.31
2024-05-09T09:56:41.841Z,101219.34
2024-05-09T09:59:13.426Z,101221.06
2024-05-09T10:01:44.268Z,101214.19
2024-05-09T10:04:16.162Z,101211.72
2024-05-09T10:06:52.782Z,101215.19
2024-05-09T10:09:23.872Z,101206.56
2024-05-09T10:12:00.145Z,101204.84
2024-05-09T10:14:31.021Z,101213.47
2024-05-09T10:17:08.456Z,101207.44
2024-05-09T10:19:36.107Z,101203.06
2024-05-09T10:22:09.037Z,101210.75
2024-05-09T10:24:51.359Z,101193.44
2024-05-09T10:27:30.130Z,101195.03
2024-05-09T10:29:59.491Z,101202.69
2024-05-09T10:32:32.791Z,101203.47
2024-05-09T10:35:01.274Z,101211.94
2024-05-09T10:37:31.926Z,101209.09
2024-05-09T10:40:05.432Z,101205.41
2024-05-09T10:42:37.796Z,101201.84
2024-05-09T10:45:06.507Z,101206.13
2024-05-09T10:47:40.794Z,101202.72
2024-05-09T10:50:18.263Z,101199.25
2024-05-09T10:52:56.385Z,101196.97
2024-05-09T10:55:27.657Z,101195.63
2024-05-09T10:57:58.078Z,101198.38
2024-05-09T11:00:35.750Z,101191.78
2024-05-09T11:03:07.391Z,101184.25
2024-05-09T11:05:36.384Z,101179.97
2024-05-09T11:08:07.763Z,101182.56
2024-05-09T11:10:41.399Z,101181.63
2024-05-09T11:13:09.245Z,101177.28
2024-05-09T11:15:42.964Z,101171.19
2024-05-09T11:18:26.622Z,101170.31
2024-05-09T11:20:56.995Z,101174.59
2024-05-09T11:23:30.629Z,101169.50
2024-05-09T11:26:01.084Z,101167.78
2024-05-09T11:28:34.418Z,101158.38
2024-05-09T11:31:07.278Z,101165.28
2024-05-09T11:33:40.729Z,101167.13
2024-05-09T11:36:09.679Z,101153.31
2024-05-09T11:38:40.248Z,101163.53
2024-05-09T11:41:20.535Z,101152.31
2024-05-09T11:43:48.114Z,101157.59
2024-05-09T11:46:18.844Z,101155.88
2024-05-09T11:48:46.729Z,101149.00
2024-05-09T11:51:17.349Z,101149.09
2024-05-09T11:53:44.980Z,101143.94
2024-05-09T11:56:18.062Z,101143.91
2024-05-09T11:58:45.779Z,101144.75
2024-05-09T12:01:16.032Z,101144.81
2024-05-09T12:03:43.912Z,101141.34
2024-05-09T12:06:14.756Z,101133.63
2024-05-09T12:08:42.662Z,101134.44
2024-05-09T12:11:13.920Z,101137.06
2024-05-09T12:13:44.267Z,101131.91
2024-05-09T12:16:14.773Z,101135.34
2024-05-09T12:18:42.503Z,101120.78
2024-05-09T12:21:17.116Z,101119.06
2024-05-09T12:23:44.667Z,101117.31
2024-05-09T12:26:15.957Z,101121.56
2024-05-09T12:28:46.382Z,101113.78
2024-05-09T12:31:16.682Z,101115.47
2024-05-09T12:33:44.459Z,101106.81
2024-05-09T12:36:14.884Z,101109.44
2024-05-09T12:38:42.437Z,101107.72
2024-05-09T12:41:13.315Z,101104.41
2024-05-09T12:43:40.904Z,101099.31
2024-05-09T12:46:13.935Z,101094.91
2024-05-09T12:48:44.420Z,101098.19
2024-05-09T12:51:12.290Z,101091.44
2024-05-09T12:53:42.575Z,101094.91
2024-05-09T12:56:10.328Z,101088.97
2024-05-09T12:58:41.177Z,101088.16
2024-05-09T13:01:11.487Z,101084.66
2024-05-09T13:03:41.992Z,101083.78
2024-05-09T13:06:09.976Z,101075.09
2024-05-09T13:08:40.338Z,101079.38
2024-05-09T13:11:07.991Z,101073.50
2024-05-09T13:13:39.270Z,101067.53
2024-05-09T13:16:07.424Z,101070.06
2024-05-09T13:18:40.699Z,101064.00
2024-05-09T13:21:08.405Z,101076.94
2024-05-09T13:23:38.710Z,101065.84
2024-05-09T13:26:06.370Z,101060.69
2024-05-09T13:28:36.795Z,101064.13
2024-05-09T13:31:04.652Z,101064.09
2024-05-09T13:33:35.799Z,101069.19
2024-05-09T13:36:07.782Z,101066.63
2024-05-09T13:38:40.314Z,101064.09
2024-05-09T13:41:08.596Z,101053.81
2024-05-09T13:43:39.011Z,101052.97
2024-05-09T13:46:06.808Z,101052.97
2024-05-09T13:48:37.603Z,101044.38
2024-05-09T13:51:08.235Z,101044.38
2024-05-09T13:53:38.541Z,101037.50
2024-05-09T13:56:08.815Z,101039.22
2024-05-09T13:58:39.610Z,101036.66
2024-05-09T14:01:07.357Z,101035.81
2024-05-09T14:03:37.918Z,101031.50
2024-05-09T14:06:11.274Z,101025.47
2024-05-09T14:08:43.288Z,101028.94
2024-05-09T14:11:10.996Z,101019.53
2024-05-09T14:13:41.206Z,101028.09
2024-05-09T14:16:11.921Z,101021.22
2024-05-09T14:18:39.627Z,101016.94
2024-05-09T14:21:12.645Z,101016.03
2024-05-09T14:23:40.266Z,101018.63
2024-05-09T14:26:10.562Z,101020.38
2024-05-09T14:28:38.200Z,101009.16
2024-05-09T14:31:08.690Z,101006.56
2024-05-09T14:33:37.302Z,100991.19
2024-05-09T14:36:08.214Z,101000.63
2024-05-09T14:38:38.518Z,100998.09
2024-05-09T14:41:09.562Z,100998.94
2024-05-09T14:43:37.125Z,101004.06
2024-05-09T14:46:07.903Z,100982.59
2024-05-09T14:48:36.541Z,100991.19
2024-05-09T14:51:07.100Z,100990.31
2024-05-09T14:53:34.789Z,100986.03
2024-05-09T14:56:09.012Z,100983.44
2024-05-09T14:58:36.702Z,100984.31
2024-05-09T15:01:07.256Z,100975.72
2024-05-09T15:03:35.058Z,100971.47
2024-05-09T15:06:05.575Z,100964.59
2024-05-09T15:08:33.531Z,100970.59
2024-05-09T15:11:06.655Z,100965.47
2024-05-09T15:13:34.429Z,100968.88
2024-05-09T15:16:04.940Z,100967.16
2024-05-09T15:18:32.799Z,100968.03
2024-05-09T15:21:03.211Z,100967.19
2024-05-09T15:23:30.853Z,100965.47
2024-05-09T15:26:01.374Z,100963.75
2024-05-09T15:28:32.842Z,100962.03
2024-05-09T15:31:03.086Z,100955.19
2024-05-09T15:33:30.779Z,100951.72
2024-05-09T15:36:01.288Z,100958.59
2024-05-09T15:38:30.482Z,100949.19
2024-05-09T15:41:00.728Z,100951.75
2024-05-09T15:43:31.230Z,100944.84
2024-05-09T15:46:01.690Z,100953.34
2024-05-09T15:48:29.509Z,100954.13
2024-05-09T15:51:00.024Z,100950.69
2024-05-09T15:53:27.706Z,100939.63
2024-05-09T15:55:58.182Z,100938.78
2024-05-09T15:58:26.354Z,100944.78
2024-05-09T16:00:59.857Z,100941.34
2024-05-09T16:03:28.370Z,100943.06
2024-05-09T16:05:59.050Z,100937.06
2024-05-09T16:08:26.865Z,100937.88
2024-05-09T16:10:57.278Z,100945.56
2024-05-09T16:13:25.026Z,100940.41
2024-05-09T16:15:58.187Z,100942.16
2024-05-09T16:18:26.237Z,100937.84
2024-05-09T16:21:00.339Z,100942.16
2024-05-09T16:23:28.300Z,100942.13
2024-05-09T16:25:59.714Z,100942.97
2024-05-09T16:28:27.526Z,100933.47
2024-05-09T16:31:01.497Z,100929.16
2024-05-09T16:33:29.511Z,100935.03
2024-05-09T16:36:00.884Z,100929.03
2024-05-09T16:38:28.475Z,100941.00
2024-05-09T16:40:58.856Z,100935.88
2024-05-09T16:43:27.166Z,100938.44
2024-05-09T16:46:00.348Z,100931.56
2024-05-09T16:48:27.974Z,100927.22
2024-05-09T16:50:58.165Z,100930.63
2024-05-09T16:53:26.357Z,100931.47
2024-05-09T16:55:56.795Z,100930.59
2024-05-09T16:58:25.036Z,100935.66
2024-05-09T17:00:55.473Z,100933.03
2024-05-09T17:03:25.918Z,100927.88
2024-05-09T17:05:56.673Z,100931.28
2024-05-09T17:08:24.644Z,100924.41
2024-05-09T17:10:55.653Z,100935.47
2024-05-09T17:13:29.141Z,100926.09
2024-05-09T17:15:59.589Z,100918.41
2024-05-09T17:18:32.620Z,100907.22
2024-05-09T17:21:00.393Z,100913.22
2024-05-09T17:23:32.624Z,100919.16
2024-05-09T17:26:02.533Z,100914.84
2024-05-09T17:28:33.052Z,100914.81
2024-05-09T17:31:00.771Z,100911.34
2024-05-09T17:33:33.830Z,100915.53
2024-05-09T17:36:01.735Z,100917.22
2024-05-09T17:38:31.939Z,100916.38
2024-05-09T17:40:59.655Z,100924.03
2024-05-09T17:43:30.284Z,100921.41
2024-05-09T17:45:58.131Z,100937.63
2024-05-09T17:48:28.707Z,100923.91
2024-05-09T17:50:59.080Z,100919.63
2024-05-09T17:53:29.318Z,100925.56
2024-05-09T17:55:57.015Z,100922.91
2024-05-09T17:58:27.448Z,100926.28
2024-05-09T18:00:55.317Z,100921.09
2024-05-09T18:03:26.092Z,100926.19
2024-05-09T18:05:53.993Z,100925.28
2024-05-09T18:08:27.049Z,100920.94
2024-05-09T18:10:55.572Z,100920.03
2024-05-09T18:13:26.399Z,100921.69
2024-05-09T18:15:54.181Z,100919.06
2024-05-09T18:18:24.769Z,100925.88
2024-05-09T18:20:52.730Z,100919.78
2024-05-09T18:23:23.298Z,100927.44
2024-05-09T18:25:55.060Z,100924.78
2024-05-09T18:28:26.026Z,100928.13
2024-05-09T18:30:53.717Z,100931.47
2024-05-09T18:33:24.589Z,100931.38
2024-05-09T18:35:52.549Z,100929.53
2024-05-09T18:38:25.671Z,100935.47
2024-05-09T18:40:56.019Z,100937.94
2024-05-09T18:43:31.414Z,100937.84
2024-05-09T18:46:06.166Z,100936.94
2024-05-09T18:48:36.932Z,100944.50
2024-05-09T18:51:05.706Z,100938.47
2024-05-09T18:53:36.031Z,100946.88
2024-05-09T18:56:08.019Z,100954.50
2024-05-09T18:58:38.262Z,100951.84
2024-05-09T19:01:06.383Z,100955.22
2024-05-09T19:03:37.152Z,100957.69
2024-05-09T19:06:05.729Z,100955.00
2024-05-09T19:08:36.081Z,100960.03
2024-05-09T19:11:06.567Z,100967.59
2024-05-09T19:13:36.933Z,100968.38
2024-05-09T19:16:05.790Z,100969.16
2024-05-09T19:18:36.859Z,100961.38
2024-05-09T19:21:05.085Z,100973.31
2024-05-09T19:23:38.133Z,100970.69
2024-05-09T19:26:11.114Z,100968.91
2024-05-09T19:28:41.327Z,100974.75
2024-05-09T19:31:08.960Z,100971.31
2024-05-09T19:33:39.426Z,100975.50
2024-05-09T19:36:08.204Z,100971.13
2024-05-09T19:38:39.495Z,100971.91
2024-05-09T19:41:07.052Z,100982.03
2024-05-09T19:43:39.895Z,100976.91
2024-05-09T19:46:07.585Z,100978.47
2024-05-09T19:48:38.057Z,100979.31
2024-05-09T19:51:06.167Z,100978.38
2024-05-09T19:53:36.436Z,100985.09
2024-05-09T19:56:04.451Z,100983.25
2024-05-09T19:58:34.761Z,100984.81
2024-05-09T20:01:05.482Z,100989.81
2024-05-09T20:03:37.243Z,100993.09
2024-05-09T20:06:05.414Z,100993.88
2024-05-09T20:08:35.905Z,100988.69
2024-05-09T20:11:03.977Z,100990.25
2024-05-09T20:13:34.220Z,101001.28
2024-05-09T20:16:05.293Z,100996.06
2024-05-09T20:18:35.794Z,101002.75
2024-05-09T20:21:03.759Z,101000.19
2024-05-09T20:23:34.125Z,100996.66
2024-05-09T20:26:01.871Z,101002.47
2024-05-09T20:28:33.691Z,100999.03
2024-05-09T20:31:04.092Z,101004.06
2024-05-09T20:33:34.557Z,101003.94
2024-05-09T20:36:02.744Z,101000.50
2024-05-09T20:38:33.041Z,100999.56
2024-05-09T20:41:00.834Z,101005.53
2024-05-09T20:43:31.264Z,100997.84
2024-05-09T20:45:58.934Z,100990.16
2024-05-09T20:48:31.916Z,100991.81
2024-05-09T20:50:59.632Z,100990.84
2024-05-09T20:53:29.878Z,100997.56
2024-05-09T20:55:57.520Z,100994.09
2024-05-09T20:58:27.756Z,100988.91
2024-05-09T21:00:55.603Z,100994.00
2024-05-09T21:03:25.965Z,100998.19
2024-05-09T21:05:56.334Z,100991.31
2024-05-09T21:08:27.002Z,100989.56
2024-05-09T21:10:54.876Z,100992.03
2024-05-09T21:13:25.306Z,101006.44
2024-05-09T21:15:54.256Z,100991.91
2024-05-09T21:18:24.661Z,100995.22
2024-05-09T21:20:52.343Z,101001.19
2024-05-09T21:23:25.240Z,101004.53
2024-05-09T21:25:53.102Z,100995.13
2024-05-09T21:28:23.534Z,101002.75
2024-05-09T21:30:53.775Z,101001.78
2024-05-09T21:33:24.153Z,101006.84
2024-05-09T21:35:51.797Z,101002.41
2024-05-09T21:38:24.790Z,101005.75
2024-05-09T21:40:52.570Z,101010.81
2024-05-09T21:43:23.014Z,101012.47
2024-05-09T21:45:50.729Z,101019.19
2024-05-09T21:48:20.984Z,101010.66
2024-05-09T21:50:48.574Z,101011.44
2024-05-09T21:53:18.874Z,101008.78
2024-05-09T21:55:49.204Z,101008.72
2024-05-09T21:58:19.541Z,101007.75
2024-05-09T22:00:47.359Z,101007.69
2024-05-09T22:03:18.077Z,100994.88
2024-05-09T22:05:45.910Z,100997.38
2024-05-09T22:08:16.296Z,100989.72
2024-05-09T22:10:44.501Z,100987.91
2024-05-09T22:13:20.400Z,100987.06
2024-05-09T22:15:48.219Z,100992.03
2024-05-09T22:18:18.568Z,101001.22
2024-05-09T22:20:46.916Z,100999.34
2024-05-09T22:23:18.285Z,100994.78
2024-05-09T22:25:48.851Z,100998.81
2024-05-09T22:28:22.897Z,101000.38
2024-05-09T22:30:51.864Z,100991.75
2024-05-09T22:33:22.320Z,100994.22
2024-05-09T22:35:51.239Z,100990.81
2024-05-09T22:38:21.487Z,100993.31
2024-05-09T22:40:50.145Z,100996.44
2024-05-09T22:43:25.547Z,100992.91
2024-05-09T22:45:56.334Z,100997.06
2024-05-09T22:48:27.080Z,100995.25
2024-05-09T22:50:55.251Z,100996.03
2024-05-09T22:53:26.561Z,100997.63
2024-05-09T22:55:54.489Z,100995.06
2024-05-09T22:58:27.527Z,101000.94
2024-05-09T23:00:57.957Z,101005.13
2024-05-09T23:03:28.466Z,101002.47
2024-05-09T23:05:56.112Z,101004.94
2024-05-09T23:08:26.288Z,101000.69
2024-05-09T23:10:54.059Z,100998.88
2024-05-09T23:13:47.927Z,100990.28
2024-05-09T23:16:20.661Z,100996.16
2024-05-09T23:19:37.806Z,100991.84
2024-05-09T23:22:08.100Z,100996.78
2024-05-09T23:25:17.530Z,100979.69
2024-05-09T23:27:56.821Z,100986.38
2024-05-09T23:30:43.122Z,100983.78
2024-05-09T23:33:16.504Z,100980.19
2024-05-09T23:36:00.081Z,100974.22
2024-05-09T23:38:31.861Z,100976.59
2024-05-09T23:41:17.225Z,100973.94
2024-05-09T23:43:48.966Z,100972.97
2024-05-09T23:46:22.011Z,100972.13
2024-05-09T23:48:51.559Z,100976.25
2024-05-09T23:51:21.970Z,100973.72
2024-05-09T23:53:49.573Z,100974.56
2024-05-09T23:56:23.887Z,100971.94
2024-05-09T23:58:51.744Z,100971.03
